Portada
METAR-TAF:

METAR-TAF

Aeroports :

Petawawa, Ontàrio, Canadà

latitud: 45-57N, longitud: 077-19W, altitud: 130 m

Observació

L'informe es va fer fa 43 minuts, a les 11:00 UTC
Vent calma
Temperatura 12°C
Humitat 88%
Pressió 1022 hPa
Visibilitat: 14.5 km
Cel clar

METAR: CYWA 201100Z AUTO 00000KT 9SM CLR 12/10 A3019 RMK SLP227

Hora: 07:43 (11:43 UTC)

Pronòstic

L'informe es va fer fa 13 minuts, a les 11:30 UTC
Pronòstic vàlid del 20 a les 12 UTC al 20 a les 24 UTC
Vent 3 kt amb direcció variable
Visibilitat: 10 km
Escasses núvols a una alçada de 17000 ft
Cel ennuvolat a una alçada de 25000 ft
A partir de les 20 a les 1800 UTC
Vent 5 kt del Sud-Oest
Visibilitat: 10 km
Núvols disperses a una alçada de 16000 ft

TAF: CYWA 201130Z 2012/2024 VRB03KT P6SM FEW170 BKN250 FM201800 23005KT P6SM SCT160 RMK FCST BASED ON AUTO OBS. NXT FCST BY 201800Z

Observacions i pronòstics meteorològics de més de 4000 aeroports (METAR i TAF).

Les estacions disponibles són els punts grocs i vermells al mapa.

Posi el ratolí al punt desitjat per veure el nom de l'estació.

Feu clic per veure les observacions i els pronòstics meteorològics.

Per canviar el mapa: feu clic els botons verds amb una creu de color negre per apropar; al botó verd amb un guió per allunyar la imatge; o en les fletxes verdes per a mapes adjacents.


METAR-TAF: